createdAt,value
2023-04-18T00:01:34.707Z,10.10
2023-04-18T00:04:06.753Z,10.33
2023-04-18T00:06:39.065Z,10.33
2023-04-18T00:09:11.041Z,10.40
2023-04-18T00:11:43.082Z,10.50
2023-04-18T00:14:15.214Z,10.17
2023-04-18T00:16:47.658Z,9.90
2023-04-18T00:19:20.186Z,9.70
2023-04-18T00:21:53.148Z,10.23
2023-04-18T00:24:25.210Z,9.80
2023-04-18T00:26:57.199Z,9.67
2023-04-18T00:29:31.749Z,9.23
2023-04-18T00:32:03.704Z,9.47
2023-04-18T00:34:35.792Z,9.77
2023-04-18T00:37:08.182Z,9.07
2023-04-18T00:39:40.130Z,9.80
2023-04-18T00:42:12.128Z,9.40
2023-04-18T00:44:44.052Z,9.50
2023-04-18T00:47:17.601Z,9.83
2023-04-18T00:49:50.032Z,9.40
2023-04-18T00:52:22.208Z,10.57
2023-04-18T00:54:55.517Z,9.60
2023-04-18T00:57:27.712Z,10.23
2023-04-18T01:00:10.289Z,9.93
2023-04-18T01:02:42.390Z,9.70
2023-04-18T01:05:14.445Z,10.00
2023-04-18T01:07:46.420Z,10.40
2023-04-18T01:10:19.656Z,10.23
2023-04-18T01:13:11.739Z,9.80
2023-04-18T01:15:49.136Z,9.90
2023-04-18T01:18:22.600Z,9.67
2023-04-18T01:20:57.070Z,9.67
2023-04-18T01:23:30.015Z,9.60
2023-04-18T01:26:02.024Z,9.67
2023-04-18T01:28:37.379Z,9.57
2023-04-18T01:31:09.338Z,9.93
2023-04-18T01:33:41.768Z,9.53
2023-04-18T01:36:13.936Z,9.37
2023-04-18T01:38:45.943Z,9.33
2023-04-18T01:41:17.962Z,9.27
2023-04-18T01:43:49.996Z,9.77
2023-04-18T01:46:21.922Z,9.10
2023-04-18T01:48:54.131Z,9.43
2023-04-18T01:51:28.254Z,9.60
2023-04-18T01:54:00.311Z,8.90
2023-04-18T01:56:32.203Z,9.23
2023-04-18T01:59:04.227Z,8.90
2023-04-18T02:01:36.160Z,9.07
2023-04-18T02:04:08.206Z,9.37
2023-04-18T02:06:40.230Z,9.87
2023-04-18T02:09:12.400Z,9.40
2023-04-18T02:11:44.429Z,8.40
2023-04-18T02:14:16.412Z,9.30
2023-04-18T02:16:48.452Z,8.70
2023-04-18T02:19:20.422Z,9.43
2023-04-18T02:21:52.444Z,9.13
2023-04-18T02:24:24.394Z,9.33
2023-04-18T02:26:56.339Z,9.27
2023-04-18T02:29:30.525Z,9.67
2023-04-18T02:32:03.310Z,9.17
2023-04-18T02:34:36.913Z,9.40
2023-04-18T02:37:08.850Z,9.27
2023-04-18T02:39:40.935Z,8.90
2023-04-18T02:42:12.909Z,9.47
2023-04-18T02:44:44.830Z,9.73
2023-04-18T02:47:16.739Z,9.33
2023-04-18T02:49:48.775Z,9.53
2023-04-18T02:52:20.724Z,9.33
2023-04-18T02:54:52.824Z,9.50
2023-04-18T02:57:24.805Z,9.17
2023-04-18T02:59:56.781Z,8.90
2023-04-18T03:02:28.767Z,9.33
2023-04-18T03:05:00.799Z,9.37
2023-04-18T03:07:32.716Z,9.57
2023-04-18T03:10:05.521Z,9.00
2023-04-18T03:12:37.465Z,8.93
2023-04-18T03:15:10.063Z,9.37
2023-04-18T03:17:42.474Z,8.93
2023-04-18T03:20:14.535Z,8.97
2023-04-18T03:22:46.450Z,8.93
2023-04-18T03:25:18.360Z,9.30
2023-04-18T03:27:50.526Z,8.70
2023-04-18T03:30:22.787Z,8.93
2023-04-18T03:32:56.169Z,9.20
2023-04-18T03:35:28.594Z,9.00
2023-04-18T03:38:00.606Z,9.60
2023-04-18T03:40:32.613Z,8.93
2023-04-18T03:43:04.557Z,9.73
2023-04-18T03:45:36.877Z,9.30
2023-04-18T03:48:08.826Z,9.70
2023-04-18T03:50:40.967Z,9.27
2023-04-18T03:53:12.962Z,9.73
2023-04-18T03:55:44.945Z,9.33
2023-04-18T03:58:18.049Z,9.60
2023-04-18T04:00:53.232Z,9.27
2023-04-18T04:03:25.273Z,9.50
2023-04-18T04:05:57.629Z,9.80
2023-04-18T04:08:29.602Z,9.37
2023-04-18T04:11:01.563Z,9.23
2023-04-18T04:13:33.496Z,9.33
2023-04-18T04:16:06.372Z,9.50
2023-04-18T04:18:38.348Z,9.20
2023-04-18T04:21:10.290Z,8.80
2023-04-18T04:23:42.745Z,9.07
2023-04-18T04:26:17.482Z,9.20
2023-04-18T04:28:53.594Z,8.87
2023-04-18T04:31:25.578Z,10.73
2023-04-18T04:33:57.722Z,10.27
2023-04-18T04:36:29.770Z,9.77
2023-04-18T04:39:04.229Z,9.23
2023-04-18T04:41:37.645Z,9.70
2023-04-18T04:44:09.778Z,9.53
2023-04-18T04:46:42.181Z,9.07
2023-04-18T04:49:14.363Z,9.13
2023-04-18T04:51:46.342Z,9.20
2023-04-18T04:54:18.396Z,9.00
2023-04-18T04:56:51.203Z,8.80
2023-04-18T04:59:23.101Z,10.03
2023-04-18T05:01:55.075Z,9.23
2023-04-18T05:04:27.123Z,9.00
2023-04-18T05:06:59.362Z,9.00
2023-04-18T05:09:31.324Z,8.63
2023-04-18T05:12:03.703Z,8.90
2023-04-18T05:14:35.674Z,8.53
2023-04-18T05:17:07.897Z,8.70
2023-04-18T05:19:40.989Z,8.43
2023-04-18T05:22:12.902Z,8.43
2023-04-18T05:24:44.931Z,8.30
2023-04-18T05:27:18.171Z,8.80
2023-04-18T05:29:50.936Z,8.43
2023-04-18T05:32:22.984Z,8.67
2023-04-18T05:34:54.973Z,9.07
2023-04-18T05:37:27.017Z,9.30
2023-04-18T05:40:00.744Z,8.87
2023-04-18T05:42:33.431Z,9.27
2023-04-18T05:45:06.106Z,9.33
2023-04-18T05:47:38.137Z,8.93
2023-04-18T05:50:10.897Z,8.77
2023-04-18T05:52:42.887Z,8.90
2023-04-18T05:55:14.859Z,8.93
2023-04-18T05:57:46.839Z,9.10
2023-04-18T06:00:19.876Z,8.90
2023-04-18T06:02:52.024Z,8.80
2023-04-18T06:05:24.516Z,9.47
2023-04-18T06:07:56.804Z,9.07
2023-04-18T06:10:29.704Z,9.23
2023-04-18T06:13:02.072Z,9.37
2023-04-18T06:15:35.376Z,9.03
2023-04-18T06:18:07.591Z,9.00
2023-04-18T06:20:39.800Z,9.30
2023-04-18T06:23:11.823Z,9.30
2023-04-18T06:25:43.936Z,9.37
2023-04-18T06:28:16.219Z,9.47
2023-04-18T06:30:48.154Z,9.17
2023-04-18T06:33:20.060Z,9.37
2023-04-18T06:35:52.584Z,9.20
2023-04-18T06:38:24.501Z,9.33
2023-04-18T06:40:56.478Z,9.07
2023-04-18T06:43:31.262Z,9.53
2023-04-18T06:46:05.457Z,8.93
2023-04-18T06:48:37.528Z,9.17
2023-04-18T06:51:09.412Z,9.07
2023-04-18T06:53:41.626Z,9.23
2023-04-18T06:56:13.671Z,8.70
2023-04-18T06:58:45.790Z,9.57
2023-04-18T07:01:17.785Z,8.97
2023-04-18T07:03:49.826Z,8.77
2023-04-18T07:06:21.760Z,8.70
2023-04-18T07:08:56.046Z,9.40
2023-04-18T07:11:28.703Z,8.83
2023-04-18T07:14:00.760Z,8.40
2023-04-18T07:16:32.833Z,9.47
2023-04-18T07:19:06.656Z,8.90
2023-04-18T07:21:40.656Z,8.77
2023-04-18T07:24:13.054Z,8.50
2023-04-18T07:26:45.335Z,8.27
2023-04-18T07:29:19.353Z,8.70
2023-04-18T07:31:52.072Z,8.20
2023-04-18T07:34:24.350Z,8.40
2023-04-18T07:36:57.700Z,8.30
2023-04-18T07:39:31.823Z,8.43
2023-04-18T07:42:05.203Z,8.00
2023-04-18T07:44:37.155Z,8.43
2023-04-18T07:47:12.375Z,8.40
2023-04-18T07:49:44.375Z,8.13
2023-04-18T07:52:16.470Z,7.87
2023-04-18T07:54:48.397Z,8.57
2023-04-18T07:57:20.539Z,8.03
2023-04-18T07:59:53.916Z,8.20
2023-04-18T08:02:26.014Z,8.47
2023-04-18T08:04:58.560Z,8.23
2023-04-18T08:07:31.029Z,8.83
2023-04-18T08:10:03.433Z,8.00
2023-04-18T08:12:36.632Z,8.40
2023-04-18T08:15:09.459Z,8.50
2023-04-18T08:17:43.997Z,8.63
2023-04-18T08:20:16.050Z,8.00
2023-04-18T08:23:05.221Z,8.27
2023-04-18T08:25:39.808Z,8.20
2023-04-18T08:28:12.017Z,8.70
2023-04-18T08:30:44.119Z,8.40
2023-04-18T08:33:16.355Z,8.40
2023-04-18T08:35:51.928Z,8.23
2023-04-18T08:38:23.838Z,8.80
2023-04-18T08:40:55.939Z,8.60
2023-04-18T08:43:30.166Z,9.00
2023-04-18T08:46:02.589Z,8.27
2023-04-18T08:48:34.531Z,8.23
2023-04-18T08:51:06.511Z,8.43
2023-04-18T08:53:39.634Z,8.40
2023-04-18T08:56:14.719Z,8.13
2023-04-18T08:58:46.688Z,8.60
2023-04-18T09:01:18.675Z,9.03
2023-04-18T09:03:51.210Z,8.87
2023-04-18T09:06:23.160Z,8.63
2023-04-18T09:08:58.936Z,8.57
2023-04-18T09:11:32.525Z,8.30
2023-04-18T09:14:04.426Z,8.47
2023-04-18T09:16:50.531Z,8.60
2023-04-18T09:19:23.834Z,8.27
2023-04-18T09:22:02.016Z,8.63
2023-04-18T09:24:34.463Z,8.03
2023-04-18T09:27:15.305Z,8.50
2023-04-18T09:29:50.090Z,8.40
2023-04-18T09:32:29.467Z,8.13
2023-04-18T09:35:05.581Z,7.83
2023-04-18T09:37:37.601Z,7.87
2023-04-18T09:40:20.694Z,7.80
2023-04-18T09:42:57.078Z,7.77
2023-04-18T09:45:29.056Z,7.60
2023-04-18T09:48:01.237Z,8.13
2023-04-18T09:50:35.226Z,7.13
2023-04-18T09:53:09.058Z,7.27
2023-04-18T09:55:42.429Z,7.03
2023-04-18T09:58:14.870Z,6.93
2023-04-18T10:00:47.581Z,6.90
2023-04-18T10:03:22.392Z,6.57
2023-04-18T10:05:57.672Z,6.73
2023-04-18T10:08:30.531Z,6.70
2023-04-18T10:11:02.486Z,6.27
2023-04-18T10:13:39.014Z,6.67
2023-04-18T10:16:11.522Z,6.23
2023-04-18T10:18:43.529Z,5.87
2023-04-18T10:21:15.531Z,5.70
2023-04-18T10:23:49.095Z,5.23
2023-04-18T10:26:21.808Z,4.87
2023-04-18T10:28:58.933Z,4.40
2023-04-18T10:31:39.530Z,4.70
2023-04-18T10:34:17.496Z,4.80
2023-04-18T10:37:06.429Z,5.47
2023-04-18T10:40:08.307Z,5.23
2023-04-18T10:42:58.811Z,5.60
2023-04-18T10:45:32.611Z,5.70
2023-04-18T10:48:30.267Z,5.50
2023-04-18T10:51:16.736Z,5.67
2023-04-18T10:53:57.664Z,5.60
2023-04-18T10:56:29.970Z,6.03
2023-04-18T10:59:03.801Z,5.80
2023-04-18T11:01:42.717Z,6.07
2023-04-18T11:04:15.404Z,6.37
2023-04-18T11:06:57.279Z,6.20
2023-04-18T11:09:29.245Z,5.67
2023-04-18T11:12:07.779Z,6.00
2023-04-18T11:14:45.360Z,5.83
2023-04-18T11:17:25.482Z,6.30
2023-04-18T11:20:13.126Z,6.30
2023-04-18T11:22:50.400Z,6.40
2023-04-18T11:25:36.518Z,7.10
2023-04-18T11:28:09.510Z,6.80
2023-04-18T11:30:42.700Z,7.80
2023-04-18T11:33:15.796Z,7.50
2023-04-18T11:35:47.852Z,8.20
2023-04-18T11:38:19.834Z,8.37
2023-04-18T11:40:51.752Z,8.60
2023-04-18T11:43:25.423Z,9.13
2023-04-18T11:45:59.898Z,9.63
2023-04-18T11:48:40.357Z,9.80
2023-04-18T11:51:34.410Z,9.67
2023-04-18T11:54:06.634Z,9.13
2023-04-18T11:56:48.535Z,8.73
2023-04-18T11:59:20.790Z,7.93
2023-04-18T12:02:15.302Z,7.80
2023-04-18T12:04:59.300Z,7.67
2023-04-18T12:07:40.262Z,7.63
2023-04-18T12:10:29.552Z,9.43
2023-04-18T12:13:02.526Z,9.17
2023-04-18T12:15:39.329Z,9.43
2023-04-18T12:18:14.215Z,8.87
2023-04-18T12:20:52.613Z,9.37
2023-04-18T12:23:37.099Z,9.57
2023-04-18T12:26:16.622Z,8.83
2023-04-18T12:28:51.507Z,9.27
2023-04-18T12:31:23.594Z,9.47
2023-04-18T12:33:55.743Z,9.40
2023-04-18T12:36:28.751Z,9.53
2023-04-18T12:39:01.831Z,9.90
2023-04-18T12:41:34.052Z,10.03
2023-04-18T12:44:06.846Z,9.80
2023-04-18T12:46:38.877Z,10.13
2023-04-18T12:49:10.913Z,10.37
2023-04-18T12:51:43.649Z,10.57
2023-04-18T12:54:15.799Z,10.47
2023-04-18T12:56:47.866Z,10.53
2023-04-18T12:59:19.811Z,10.33
2023-04-18T13:01:51.843Z,9.83
2023-04-18T13:04:23.999Z,9.53
2023-04-18T13:06:56.401Z,10.47
2023-04-18T13:09:28.500Z,10.03
2023-04-18T13:12:00.445Z,10.00
2023-04-18T13:14:32.501Z,10.63
2023-04-18T13:17:04.569Z,10.60
2023-04-18T13:19:36.537Z,11.17
2023-04-18T13:22:08.479Z,11.93
2023-04-18T13:24:40.495Z,12.00
2023-04-18T13:27:14.635Z,12.37
2023-04-18T13:29:46.784Z,12.13
2023-04-18T13:32:18.760Z,11.70
2023-04-18T13:34:51.105Z,12.67
2023-04-18T13:37:23.995Z,11.60
2023-04-18T13:39:56.138Z,12.23
2023-04-18T13:42:28.235Z,12.50
2023-04-18T13:45:00.308Z,12.13
2023-04-18T13:47:32.469Z,11.73
2023-04-18T13:50:05.560Z,11.40
2023-04-18T13:52:37.475Z,11.37
2023-04-18T13:55:10.706Z,10.70
2023-04-18T13:57:42.631Z,10.73
2023-04-18T14:00:15.446Z,10.90
2023-04-18T14:02:47.510Z,11.30
2023-04-18T14:05:19.744Z,11.60
2023-04-18T14:07:51.721Z,12.53
2023-04-18T14:10:23.874Z,13.70
2023-04-18T14:12:55.881Z,14.33
2023-04-18T14:15:27.881Z,13.57
2023-04-18T14:18:01.042Z,13.30
2023-04-18T14:20:34.765Z,13.27
2023-04-18T14:23:06.694Z,13.43
2023-04-18T14:25:38.609Z,12.97
2023-04-18T14:28:12.324Z,12.47
2023-04-18T14:30:44.808Z,12.33
2023-04-18T14:33:17.765Z,13.30
2023-04-18T14:35:49.953Z,13.13
2023-04-18T14:38:21.890Z,12.93
2023-04-18T14:40:55.660Z,12.50
2023-04-18T14:43:28.016Z,13.07
2023-04-18T14:46:00.071Z,12.43
2023-04-18T14:48:32.097Z,12.83
2023-04-18T14:51:04.409Z,13.17
2023-04-18T14:53:36.562Z,12.97
2023-04-18T14:56:08.507Z,13.33
2023-04-18T14:58:40.455Z,13.67
2023-04-18T15:01:12.553Z,13.80
2023-04-18T15:03:44.969Z,13.30
2023-04-18T15:06:17.112Z,14.17
2023-04-18T15:08:49.133Z,14.07
2023-04-18T15:11:21.104Z,13.30
2023-04-18T15:13:53.354Z,13.60
2023-04-18T15:16:25.646Z,13.70
2023-04-18T15:18:57.707Z,13.27
2023-04-18T15:21:29.791Z,13.50
2023-04-18T15:24:01.703Z,13.40
2023-04-18T15:26:33.648Z,12.57
2023-04-18T15:29:05.658Z,13.27
2023-04-18T15:31:39.179Z,13.37
2023-04-18T15:34:12.196Z,13.47
2023-04-18T15:36:44.313Z,12.77
2023-04-18T15:39:20.170Z,13.67
2023-04-18T15:41:56.622Z,13.40
2023-04-18T15:44:30.553Z,13.93
2023-04-18T15:47:02.499Z,13.30
2023-04-18T15:49:34.512Z,13.63
2023-04-18T15:52:06.889Z,13.93
2023-04-18T15:54:42.194Z,14.00
2023-04-18T15:57:14.311Z,13.37
2023-04-18T15:59:46.241Z,13.67
2023-04-18T16:02:18.367Z,13.00
2023-04-18T16:04:50.372Z,13.30
2023-04-18T16:07:22.367Z,12.87
2023-04-18T16:09:54.318Z,13.13
2023-04-18T16:12:26.259Z,13.57
2023-04-18T16:14:58.224Z,13.23
2023-04-18T16:17:30.489Z,13.33
2023-04-18T16:20:02.712Z,12.80
2023-04-18T16:22:34.840Z,12.47
2023-04-18T16:25:07.788Z,12.93
2023-04-18T16:27:39.859Z,12.40
2023-04-18T16:30:12.340Z,13.23
2023-04-18T16:32:44.718Z,11.80
2023-04-18T16:35:16.718Z,12.53
2023-04-18T16:37:48.706Z,12.17
2023-04-18T16:40:20.682Z,11.90
2023-04-18T16:42:52.859Z,12.67
2023-04-18T16:45:24.806Z,12.63
2023-04-18T16:47:57.545Z,12.83
2023-04-18T16:50:29.507Z,11.37
2023-04-18T16:53:04.582Z,12.70
2023-04-18T16:55:36.547Z,12.13
2023-04-18T16:58:08.884Z,12.43
2023-04-18T17:00:40.912Z,12.57
2023-04-18T17:03:12.949Z,12.37
2023-04-18T17:05:45.631Z,12.33
2023-04-18T17:08:17.680Z,12.03
2023-04-18T17:10:52.727Z,12.53
2023-04-18T17:13:26.948Z,13.00
2023-04-18T17:15:59.150Z,13.33
2023-04-18T17:18:32.399Z,13.47
2023-04-18T17:21:04.324Z,12.30
2023-04-18T17:23:36.382Z,13.00
2023-04-18T17:26:09.954Z,12.90
2023-04-18T17:28:41.968Z,12.97
2023-04-18T17:31:15.665Z,12.93
2023-04-18T17:33:47.836Z,13.07
2023-04-18T17:36:19.913Z,12.93
2023-04-18T17:38:51.946Z,12.90
2023-04-18T17:41:23.914Z,13.17
2023-04-18T17:43:58.048Z,12.20
2023-04-18T17:46:31.070Z,12.90
2023-04-18T17:49:04.278Z,12.53
2023-04-18T17:51:36.233Z,11.93
2023-04-18T17:54:08.198Z,12.50
2023-04-18T17:56:40.356Z,12.47
2023-04-18T17:59:12.590Z,12.47
2023-04-18T18:01:44.777Z,12.90
2023-04-18T18:04:16.943Z,12.33
2023-04-18T18:06:56.780Z,12.40
2023-04-18T18:09:28.720Z,12.33
2023-04-18T18:12:00.694Z,12.13
2023-04-18T18:14:32.668Z,13.00
2023-04-18T18:17:05.684Z,12.90
2023-04-18T18:19:37.828Z,12.30
2023-04-18T18:22:09.799Z,11.87
2023-04-18T18:24:41.741Z,12.43
2023-04-18T18:27:13.776Z,12.83
2023-04-18T18:29:47.908Z,13.20
2023-04-18T18:32:20.496Z,12.67
2023-04-18T18:34:52.672Z,12.83
2023-04-18T18:37:26.060Z,12.33
2023-04-18T18:39:58.691Z,12.23
2023-04-18T18:42:30.736Z,12.50
2023-04-18T18:45:03.932Z,12.47
2023-04-18T18:47:39.002Z,12.37
2023-04-18T18:50:11.881Z,12.30
2023-04-18T18:52:43.941Z,12.30
2023-04-18T18:55:16.451Z,11.83
2023-04-18T18:57:48.437Z,12.93
2023-04-18T19:00:20.567Z,13.82
2023-04-18T19:02:52.943Z,13.17
2023-04-18T19:05:25.218Z,12.57
2023-04-18T19:07:57.418Z,12.20
2023-04-18T19:10:29.433Z,12.40
2023-04-18T19:13:01.491Z,12.13
2023-04-18T19:15:33.439Z,11.90
2023-04-18T19:18:05.800Z,12.33
2023-04-18T19:20:40.374Z,12.67
2023-04-18T19:23:12.353Z,12.10
2023-04-18T19:25:45.024Z,12.23
2023-04-18T19:28:18.437Z,12.27
2023-04-18T19:30:51.109Z,11.87
2023-04-18T19:33:27.566Z,12.00
2023-04-18T19:35:59.605Z,12.00
2023-04-18T19:38:32.504Z,11.70
2023-04-18T19:41:04.474Z,11.70
2023-04-18T19:43:38.416Z,12.10
2023-04-18T19:46:10.447Z,11.87
2023-04-18T19:48:42.717Z,11.90
2023-04-18T19:51:14.715Z,11.47
2023-04-18T19:53:46.758Z,11.83
2023-04-18T19:56:18.686Z,11.43
2023-04-18T19:58:51.090Z,11.60
2023-04-18T20:01:24.187Z,11.20
2023-04-18T20:03:58.651Z,11.07
2023-04-18T20:06:31.251Z,11.17
2023-04-18T20:09:04.175Z,11.10
2023-04-18T20:11:36.226Z,11.17
2023-04-18T20:14:08.187Z,10.93
2023-04-18T20:16:42.690Z,10.90
2023-04-18T20:19:15.792Z,11.17
2023-04-18T20:21:48.044Z,10.90
2023-04-18T20:24:21.163Z,10.67
2023-04-18T20:26:53.059Z,10.60
2023-04-18T20:29:25.423Z,11.27
2023-04-18T20:31:57.354Z,10.57
2023-04-18T20:34:31.343Z,10.80
2023-04-18T20:37:03.549Z,10.90
2023-04-18T20:39:38.038Z,10.97
2023-04-18T20:42:14.365Z,10.80
2023-04-18T20:44:47.021Z,10.73
2023-04-18T20:47:19.077Z,11.23
2023-04-18T20:49:51.033Z,11.00
2023-04-18T20:52:23.072Z,11.13
2023-04-18T20:54:54.966Z,11.23
2023-04-18T20:57:26.985Z,10.90
2023-04-18T20:59:59.663Z,10.47
2023-04-18T21:02:31.963Z,11.10
2023-04-18T21:05:04.270Z,10.60
2023-04-18T21:07:36.895Z,10.87
2023-04-18T21:10:09.347Z,11.30
2023-04-18T21:12:42.597Z,11.07
2023-04-18T21:15:14.588Z,11.33
2023-04-18T21:17:46.544Z,11.57
2023-04-18T21:20:19.031Z,11.20
2023-04-18T21:22:51.011Z,11.30
2023-04-18T21:25:22.972Z,11.30
2023-04-18T21:27:54.910Z,11.07
2023-04-18T21:30:26.799Z,10.67
2023-04-18T21:32:58.857Z,11.30
2023-04-18T21:35:30.849Z,11.33
2023-04-18T21:38:02.788Z,10.80
2023-04-18T21:40:34.711Z,10.87
2023-04-18T21:43:06.662Z,10.50
2023-04-18T21:45:38.713Z,10.83
2023-04-18T21:48:10.791Z,10.00
2023-04-18T21:50:43.157Z,10.47
2023-04-18T21:53:15.108Z,10.40
2023-04-18T21:55:47.200Z,10.90
2023-04-18T21:58:19.130Z,10.63
2023-04-18T22:00:51.229Z,10.80
2023-04-18T22:03:24.941Z,10.47
2023-04-18T22:05:57.807Z,10.30
2023-04-18T22:08:31.099Z,9.90
2023-04-18T22:11:04.903Z,10.57
2023-04-18T22:13:37.206Z,10.10
2023-04-18T22:16:09.430Z,9.90
2023-04-18T22:18:41.402Z,10.13
2023-04-18T22:21:13.307Z,10.20
2023-04-18T22:23:45.421Z,10.03
2023-04-18T22:26:17.352Z,10.10
2023-04-18T22:28:49.428Z,10.43
2023-04-18T22:31:21.494Z,10.63
2023-04-18T22:33:53.547Z,10.90
2023-04-18T22:36:27.013Z,10.63
2023-04-18T22:38:58.955Z,11.20
2023-04-18T22:41:30.929Z,10.90
2023-04-18T22:44:03.472Z,10.67
2023-04-18T22:46:38.484Z,10.97
2023-04-18T22:49:10.876Z,11.00
2023-04-18T22:51:44.025Z,11.23
2023-04-18T22:54:16.252Z,11.40
2023-04-18T22:56:51.453Z,11.40
2023-04-18T22:59:23.361Z,11.30
2023-04-18T23:01:55.619Z,10.37
2023-04-18T23:04:30.216Z,11.07
2023-04-18T23:07:02.503Z,10.93
2023-04-18T23:09:34.492Z,11.70
2023-04-18T23:12:06.600Z,11.43
2023-04-18T23:14:38.947Z,12.20
2023-04-18T23:17:10.890Z,11.57
2023-04-18T23:19:45.095Z,11.60
2023-04-18T23:22:17.071Z,11.43
2023-04-18T23:24:48.964Z,11.63
2023-04-18T23:27:21.005Z,11.60
2023-04-18T23:29:52.939Z,12.17
2023-04-18T23:32:24.914Z,11.70
2023-04-18T23:34:56.930Z,12.03
2023-04-18T23:37:28.782Z,12.70
2023-04-18T23:40:01.042Z,12.07
2023-04-18T23:42:35.783Z,11.70
2023-04-18T23:45:08.236Z,11.70
2023-04-18T23:47:40.312Z,11.60
2023-04-18T23:50:12.636Z,11.57
2023-04-18T23:52:44.554Z,11.93
2023-04-18T23:55:17.453Z,12.03
2023-04-18T23:57:49.401Z,11.50
